createdAt,value
2023-04-05T00:00:40.335Z,3.44
2023-04-05T00:03:10.477Z,3.37
2023-04-05T00:05:38.762Z,3.43
2023-04-05T00:08:13.468Z,3.29
2023-04-05T00:10:52.684Z,3.22
2023-04-05T00:13:20.708Z,3.28
2023-04-05T00:15:51.240Z,2.97
2023-04-05T00:18:26.086Z,3.29
2023-04-05T00:20:55.533Z,3.07
2023-04-05T00:23:27.259Z,3.23
2023-04-05T00:25:56.314Z,3.36
2023-04-05T00:28:27.758Z,3.15
2023-04-05T00:30:56.890Z,3.29
2023-04-05T00:33:24.841Z,3.17
2023-04-05T00:35:52.967Z,3.27
2023-04-05T00:38:20.894Z,3.23
2023-04-05T00:40:52.344Z,3.24
2023-04-05T00:43:22.453Z,3.05
2023-04-05T00:45:55.212Z,3.24
2023-04-05T00:48:26.423Z,3.16
2023-04-05T00:50:55.901Z,3.08
2023-04-05T00:53:24.006Z,3.00
2023-04-05T00:55:54.386Z,3.00
2023-04-05T00:58:23.763Z,2.98
2023-04-05T01:01:01.943Z,3.00
2023-04-05T01:03:34.649Z,2.84
2023-04-05T01:06:12.816Z,2.61
2023-04-05T01:08:54.308Z,2.41
2023-04-05T01:11:26.344Z,2.82
2023-04-05T01:14:00.724Z,2.67
2023-04-05T01:16:30.889Z,2.45
2023-04-05T01:18:59.927Z,2.38
2023-04-05T01:21:48.762Z,2.09
2023-04-05T01:24:29.006Z,2.42
2023-04-05T01:27:11.523Z,2.44
2023-04-05T01:29:54.822Z,2.06
2023-04-05T01:32:31.718Z,2.32
2023-04-05T01:35:08.638Z,2.16
2023-04-05T01:37:39.808Z,2.24
2023-04-05T01:40:10.057Z,2.20
2023-04-05T01:42:38.387Z,2.02
2023-04-05T01:45:10.620Z,2.02
2023-04-05T01:47:40.058Z,1.97
2023-04-05T01:50:09.944Z,1.95
2023-04-05T01:52:38.099Z,1.93
2023-04-05T01:55:06.789Z,1.81
2023-04-05T01:57:36.888Z,1.84
2023-04-05T02:00:14.574Z,1.74
2023-04-05T02:02:47.540Z,1.51
2023-04-05T02:05:17.921Z,1.64
2023-04-05T02:07:47.282Z,1.67
2023-04-05T02:10:16.061Z,1.66
2023-04-05T02:12:45.599Z,1.72
2023-04-05T02:15:16.460Z,1.67
2023-04-05T02:17:46.248Z,1.60
2023-04-05T02:20:16.690Z,1.53
2023-04-05T02:22:46.092Z,1.46
2023-04-05T02:25:16.711Z,1.41
2023-04-05T02:27:48.731Z,1.25
2023-04-05T02:30:18.206Z,1.35
2023-04-05T02:32:47.034Z,1.38
2023-04-05T02:35:18.571Z,1.11
2023-04-05T02:37:49.370Z,1.49
2023-04-05T02:40:17.719Z,1.37
2023-04-05T02:42:47.454Z,1.32
2023-04-05T02:45:17.268Z,1.53
2023-04-05T02:47:46.577Z,1.32
2023-04-05T02:50:15.354Z,1.19
2023-04-05T02:52:45.411Z,1.20
2023-04-05T02:55:15.985Z,1.07
2023-04-05T02:57:46.685Z,0.93
2023-04-05T03:00:18.936Z,1.20
2023-04-05T03:02:49.118Z,1.29
2023-04-05T03:05:20.142Z,1.36
2023-04-05T03:07:54.832Z,1.31
2023-04-05T03:10:24.983Z,1.25
2023-04-05T03:12:54.274Z,1.10
2023-04-05T03:15:23.452Z,1.11
2023-04-05T03:17:56.665Z,1.25
2023-04-05T03:20:27.686Z,1.03
2023-04-05T03:22:56.318Z,1.09
2023-04-05T03:25:28.726Z,1.08
2023-04-05T03:27:58.153Z,0.98
2023-04-05T03:30:29.654Z,0.78
2023-04-05T03:33:01.909Z,0.96
2023-04-05T03:35:34.128Z,1.03
2023-04-05T03:38:06.797Z,0.89
2023-04-05T03:40:35.637Z,0.84
2023-04-05T03:43:03.601Z,0.76
2023-04-05T03:45:34.220Z,0.82
2023-04-05T03:48:06.620Z,0.82
2023-04-05T03:50:34.687Z,1.01
2023-04-05T03:53:04.325Z,0.90
2023-04-05T03:55:36.246Z,0.95
2023-04-05T03:58:08.529Z,1.10
2023-04-05T04:00:39.613Z,1.17
2023-04-05T04:03:14.221Z,1.06
2023-04-05T04:05:42.500Z,1.01
2023-04-05T04:08:11.885Z,0.99
2023-04-05T04:10:44.125Z,1.14
2023-04-05T04:13:12.242Z,0.80
2023-04-05T04:15:42.379Z,1.06
2023-04-05T04:18:18.225Z,1.10
2023-04-05T04:20:48.029Z,1.06
2023-04-05T04:23:17.302Z,1.16
2023-04-05T04:25:46.534Z,0.92
2023-04-05T04:28:19.660Z,0.91
2023-04-05T04:30:48.726Z,0.87
2023-04-05T04:33:20.116Z,0.73
2023-04-05T04:35:50.737Z,0.82
2023-04-05T04:38:20.832Z,0.91
2023-04-05T04:40:51.251Z,0.48
2023-04-05T04:43:27.252Z,0.80
2023-04-05T04:45:57.636Z,0.72
2023-04-05T04:48:28.577Z,0.50
2023-04-05T04:50:57.505Z,0.82
2023-04-05T04:53:26.031Z,0.78
2023-04-05T04:55:55.388Z,0.82
2023-04-05T04:58:23.443Z,0.88
2023-04-05T05:00:55.919Z,0.74
2023-04-05T05:03:26.829Z,0.45
2023-04-05T05:05:58.768Z,0.63
2023-04-05T05:08:27.807Z,0.94
2023-04-05T05:10:56.570Z,0.98
2023-04-05T05:13:29.943Z,0.97
2023-04-05T05:16:02.237Z,0.87
2023-04-05T05:18:33.725Z,0.91
2023-04-05T05:21:08.148Z,0.97
2023-04-05T05:23:40.581Z,1.09
2023-04-05T05:26:09.105Z,1.13
2023-04-05T05:28:40.624Z,1.18
2023-04-05T05:31:09.045Z,1.06
2023-04-05T05:33:37.474Z,1.22
2023-04-05T05:36:09.398Z,1.26
2023-04-05T05:38:37.543Z,1.39
2023-04-05T05:41:06.022Z,1.18
2023-04-05T05:43:34.295Z,1.46
2023-04-05T05:46:07.639Z,1.58
2023-04-05T05:48:38.448Z,1.54
2023-04-05T05:51:17.710Z,1.67
2023-04-05T05:53:47.187Z,1.75
2023-04-05T05:56:17.217Z,1.83
2023-04-05T05:58:47.289Z,1.75
2023-04-05T06:01:15.544Z,1.90
2023-04-05T06:03:44.332Z,2.01
2023-04-05T06:06:14.969Z,2.09
2023-04-05T06:08:44.378Z,2.17
2023-04-05T06:11:22.845Z,2.43
2023-04-05T06:13:52.617Z,2.46
2023-04-05T06:16:23.007Z,2.58
2023-04-05T06:18:52.277Z,2.65
2023-04-05T06:21:22.577Z,2.34
2023-04-05T06:23:54.350Z,2.63
2023-04-05T06:26:27.150Z,2.96
2023-04-05T06:28:55.901Z,2.98
2023-04-05T06:31:28.701Z,2.94
2023-04-05T06:33:58.892Z,3.20
2023-04-05T06:36:34.376Z,3.32
2023-04-05T06:39:03.214Z,3.31
2023-04-05T06:41:31.518Z,3.36
2023-04-05T06:44:09.332Z,3.62
2023-04-05T06:46:41.776Z,3.35
2023-04-05T06:49:11.143Z,3.75
2023-04-05T06:51:42.393Z,3.81
2023-04-05T06:54:12.456Z,3.87
2023-04-05T06:56:40.542Z,3.86
2023-04-05T06:59:09.092Z,3.83
2023-04-05T07:01:37.596Z,4.01
2023-04-05T07:04:06.189Z,4.14
2023-04-05T07:06:39.397Z,4.27
2023-04-05T07:09:09.724Z,4.20
2023-04-05T07:11:42.610Z,4.19
2023-04-05T07:14:11.157Z,3.90
2023-04-05T07:16:42.906Z,4.36
2023-04-05T07:19:12.364Z,4.34
2023-04-05T07:21:41.542Z,4.50
2023-04-05T07:24:15.827Z,4.60
2023-04-05T07:26:43.954Z,4.68
2023-04-05T07:29:13.415Z,4.90
2023-04-05T07:31:42.894Z,4.59
2023-04-05T07:34:12.201Z,4.62
2023-04-05T07:36:41.008Z,4.64
2023-04-05T07:39:10.731Z,4.71
2023-04-05T07:41:40.202Z,4.71
2023-04-05T07:44:09.442Z,4.52
2023-04-05T07:46:38.688Z,4.79
2023-04-05T07:49:08.341Z,4.94
2023-04-05T07:51:38.562Z,5.05
2023-04-05T07:54:15.685Z,4.96
2023-04-05T07:56:46.169Z,5.14
2023-04-05T07:59:15.032Z,5.27
2023-04-05T08:01:46.353Z,5.37
2023-04-05T08:04:15.015Z,5.34
2023-04-05T08:06:46.203Z,5.41
2023-04-05T08:09:17.306Z,5.09
2023-04-05T08:11:47.305Z,5.57
2023-04-05T08:14:18.043Z,5.77
2023-04-05T08:16:53.329Z,5.56
2023-04-05T08:19:22.950Z,5.71
2023-04-05T08:21:55.064Z,5.85
2023-04-05T08:24:25.403Z,5.82
2023-04-05T08:26:56.371Z,6.07
2023-04-05T08:29:28.045Z,5.86
2023-04-05T08:31:58.513Z,5.95
2023-04-05T08:34:28.127Z,5.88
2023-04-05T08:36:59.555Z,6.38
2023-04-05T08:39:30.836Z,6.41
2023-04-05T08:42:04.920Z,6.47
2023-04-05T08:44:33.198Z,6.66
2023-04-05T08:47:02.686Z,6.63
2023-04-05T08:49:31.441Z,6.39
2023-04-05T08:52:03.324Z,6.46
2023-04-05T08:54:33.437Z,6.72
2023-04-05T08:57:08.833Z,6.53
2023-04-05T08:59:40.987Z,6.72
2023-04-05T09:02:16.478Z,6.78
2023-04-05T09:04:53.124Z,6.81
2023-04-05T09:07:26.320Z,6.85
2023-04-05T09:10:00.796Z,6.77
2023-04-05T09:12:34.745Z,6.55
2023-04-05T09:15:05.143Z,6.66
2023-04-05T09:17:36.669Z,6.88
2023-04-05T09:20:08.045Z,6.79
2023-04-05T09:22:45.519Z,6.82
2023-04-05T09:25:36.769Z,6.76
2023-04-05T09:28:06.665Z,7.06
2023-04-05T09:30:37.042Z,6.80
2023-04-05T09:33:10.439Z,7.02
2023-04-05T09:35:40.439Z,7.24
2023-04-05T09:38:10.398Z,7.19
2023-04-05T09:40:45.201Z,6.96
2023-04-05T09:43:34.439Z,7.18
2023-04-05T09:46:03.320Z,7.26
2023-04-05T09:48:49.560Z,6.95
2023-04-05T09:51:21.065Z,7.55
2023-04-05T09:54:01.297Z,7.84
2023-04-05T09:56:33.528Z,7.48
2023-04-05T09:59:10.877Z,7.55
2023-04-05T10:01:42.478Z,7.40
2023-04-05T10:04:20.544Z,7.59
2023-04-05T10:06:48.708Z,7.67
2023-04-05T10:09:19.765Z,7.51
2023-04-05T10:12:02.349Z,8.04
2023-04-05T10:14:33.221Z,8.12
2023-04-05T10:17:10.503Z,8.06
2023-04-05T10:19:59.028Z,8.10
2023-04-05T10:22:42.478Z,8.13
2023-04-05T10:25:18.628Z,8.23
2023-04-05T10:27:54.876Z,8.10
2023-04-05T10:30:26.490Z,8.11
2023-04-05T10:33:07.543Z,8.29
2023-04-05T10:35:45.679Z,8.39
2023-04-05T10:38:25.572Z,8.49
2023-04-05T10:40:56.870Z,8.32
2023-04-05T10:43:28.612Z,8.35
2023-04-05T10:46:00.630Z,8.41
2023-04-05T10:48:46.622Z,8.55
2023-04-05T10:51:18.125Z,8.66
2023-04-05T10:53:50.616Z,9.04
2023-04-05T10:56:32.158Z,8.68
2023-04-05T10:59:03.254Z,8.68
2023-04-05T11:01:34.610Z,8.62
2023-04-05T11:04:12.882Z,8.76
2023-04-05T11:06:48.055Z,8.91
2023-04-05T11:09:21.442Z,8.95
2023-04-05T11:11:54.009Z,9.21
2023-04-05T11:14:26.129Z,8.96
2023-04-05T11:16:59.939Z,8.99
2023-04-05T11:19:53.872Z,9.16
2023-04-05T11:22:29.824Z,9.21
2023-04-05T11:25:03.412Z,9.06
2023-04-05T11:27:33.308Z,9.20
2023-04-05T11:30:07.504Z,9.23
2023-04-05T11:32:43.719Z,9.50
2023-04-05T11:35:17.778Z,9.42
2023-04-05T11:38:24.230Z,9.81
2023-04-05T11:41:06.326Z,9.61
2023-04-05T11:43:38.380Z,9.61
2023-04-05T11:46:09.334Z,9.93
2023-04-05T11:48:37.722Z,9.88
2023-04-05T11:51:11.761Z,10.11
2023-04-05T11:53:47.200Z,9.80
2023-04-05T11:56:16.218Z,10.12
2023-04-05T11:58:53.121Z,10.23
2023-04-05T12:01:23.995Z,10.24
2023-04-05T12:03:55.632Z,10.20
2023-04-05T12:06:26.626Z,10.55
2023-04-05T12:08:56.646Z,10.72
2023-04-05T12:11:32.404Z,10.54
2023-04-05T12:14:04.414Z,10.64
2023-04-05T12:16:35.366Z,10.39
2023-04-05T12:19:03.401Z,10.44
2023-04-05T12:21:32.600Z,10.41
2023-04-05T12:24:01.257Z,10.84
2023-04-05T12:26:35.722Z,10.65
2023-04-05T12:29:06.259Z,10.53
2023-04-05T12:31:56.197Z,10.41
2023-04-05T12:34:30.535Z,10.21
2023-04-05T12:37:03.682Z,10.47
2023-04-05T12:39:34.528Z,10.50
2023-04-05T12:42:03.948Z,10.22
2023-04-05T12:44:32.818Z,10.24
2023-04-05T12:47:03.586Z,10.29
2023-04-05T12:49:36.507Z,10.45
2023-04-05T12:52:05.782Z,10.57
2023-04-05T12:54:35.249Z,10.80
2023-04-05T12:57:09.155Z,10.88
2023-04-05T12:59:40.124Z,10.34
2023-04-05T13:02:10.059Z,10.76
2023-04-05T13:04:40.416Z,11.01
2023-04-05T13:07:08.284Z,11.11
2023-04-05T13:09:44.975Z,10.97
2023-04-05T13:12:14.293Z,10.52
2023-04-05T13:14:43.638Z,10.80
2023-04-05T13:17:15.142Z,10.70
2023-04-05T13:19:47.281Z,10.70
2023-04-05T13:22:17.203Z,10.90
2023-04-05T13:24:45.863Z,10.76
2023-04-05T13:27:15.071Z,10.86
2023-04-05T13:29:43.748Z,10.88
2023-04-05T13:32:15.206Z,10.91
2023-04-05T13:34:43.399Z,11.00
2023-04-05T13:37:15.053Z,10.77
2023-04-05T13:39:45.445Z,11.04
2023-04-05T13:42:13.921Z,11.17
2023-04-05T13:44:44.560Z,10.97
2023-04-05T13:47:17.856Z,11.06
2023-04-05T13:49:48.985Z,10.71
2023-04-05T13:52:18.412Z,10.82
2023-04-05T13:54:46.445Z,11.00
2023-04-05T13:57:15.485Z,10.65
2023-04-05T13:59:43.916Z,10.77
2023-04-05T14:02:12.560Z,10.72
2023-04-05T14:04:42.816Z,10.74
2023-04-05T14:07:11.510Z,11.51
2023-04-05T14:09:40.069Z,10.95
2023-04-05T14:12:08.636Z,11.05
2023-04-05T14:14:36.982Z,11.06
2023-04-05T14:17:10.042Z,12.63
2023-04-05T14:19:38.474Z,14.54
2023-04-05T14:22:09.190Z,16.33
2023-04-05T14:24:46.506Z,17.97
2023-04-05T14:27:16.951Z,19.50
2023-04-05T14:29:46.808Z,20.60
2023-04-05T14:32:16.220Z,19.40
2023-04-05T14:34:46.021Z,20.63
2023-04-05T14:37:20.450Z,20.41
2023-04-05T14:39:50.481Z,20.62
2023-04-05T14:42:23.836Z,21.83
2023-04-05T14:44:56.812Z,20.96
2023-04-05T14:47:25.146Z,18.19
2023-04-05T14:49:54.528Z,18.59
2023-04-05T14:52:23.993Z,19.23
2023-04-05T14:54:53.097Z,20.58
2023-04-05T14:57:21.699Z,20.79
2023-04-05T14:59:53.608Z,20.49
2023-04-05T15:02:22.049Z,19.76
2023-04-05T15:04:51.087Z,19.78
2023-04-05T15:07:20.821Z,19.88
2023-04-05T15:09:51.989Z,20.17
2023-04-05T15:12:21.635Z,19.89
2023-04-05T15:14:52.585Z,20.15
2023-04-05T15:17:21.148Z,21.27
2023-04-05T15:19:50.719Z,21.50
2023-04-05T15:22:20.840Z,22.35
2023-04-05T15:24:54.629Z,22.42
2023-04-05T15:27:23.407Z,20.90
2023-04-05T15:29:52.294Z,21.27
2023-04-05T15:32:23.598Z,21.25
2023-04-05T15:34:51.648Z,20.55
2023-04-05T15:37:22.758Z,19.15
2023-04-05T15:39:51.677Z,16.75
2023-04-05T15:42:26.361Z,15.14
2023-04-05T15:44:58.117Z,14.07
2023-04-05T15:47:26.932Z,13.77
2023-04-05T15:49:56.324Z,12.70
2023-04-05T15:52:24.735Z,12.66
2023-04-05T15:54:53.784Z,12.36
2023-04-05T15:57:24.798Z,12.07
2023-04-05T16:00:02.216Z,11.74
2023-04-05T16:02:33.962Z,11.81
2023-04-05T16:05:06.364Z,11.57
2023-04-05T16:07:36.292Z,11.35
2023-04-05T16:10:08.630Z,11.53
2023-04-05T16:12:38.021Z,11.58
2023-04-05T16:15:08.769Z,11.28
2023-04-05T16:17:37.989Z,11.36
2023-04-05T16:20:08.073Z,11.55
2023-04-05T16:22:39.383Z,12.20
2023-04-05T16:25:08.645Z,11.67
2023-04-05T16:27:37.449Z,11.47
2023-04-05T16:30:09.793Z,11.52
2023-04-05T16:32:38.415Z,11.19
2023-04-05T16:35:08.907Z,11.55
2023-04-05T16:37:42.889Z,11.43
2023-04-05T16:40:14.052Z,11.33
2023-04-05T16:42:42.164Z,11.18
2023-04-05T16:45:13.711Z,11.00
2023-04-05T16:47:43.552Z,10.79
2023-04-05T16:50:13.138Z,10.90
2023-04-05T16:52:41.407Z,10.73
2023-04-05T16:55:15.687Z,10.72
2023-04-05T16:57:43.847Z,10.68
2023-04-05T17:00:17.752Z,10.63
2023-04-05T17:02:49.500Z,10.70
2023-04-05T17:05:19.066Z,10.16
2023-04-05T17:07:53.161Z,10.32
2023-04-05T17:10:23.247Z,10.50
2023-04-05T17:13:00.927Z,10.38
2023-04-05T17:15:31.155Z,10.58
2023-04-05T17:18:09.546Z,10.50
2023-04-05T17:20:39.235Z,10.35
2023-04-05T17:23:16.999Z,10.13
2023-04-05T17:25:49.328Z,10.06
2023-04-05T17:28:18.742Z,10.01
2023-04-05T17:30:55.488Z,9.99
2023-04-05T17:33:24.016Z,9.79
2023-04-05T17:35:53.403Z,9.92
2023-04-05T17:38:22.603Z,9.62
2023-04-05T17:40:56.431Z,9.68
2023-04-05T17:43:27.286Z,9.27
2023-04-05T17:45:58.097Z,9.54
2023-04-05T17:48:27.186Z,9.34
2023-04-05T17:50:57.114Z,9.20
2023-04-05T17:53:25.176Z,9.18
2023-04-05T17:55:57.365Z,9.10
2023-04-05T17:58:25.436Z,8.73
2023-04-05T18:00:54.342Z,8.50
2023-04-05T18:03:28.612Z,8.33
2023-04-05T18:05:57.561Z,8.05
2023-04-05T18:08:26.965Z,8.33
2023-04-05T18:11:02.201Z,7.88
2023-04-05T18:13:36.487Z,8.01
2023-04-05T18:16:07.837Z,7.93
2023-04-05T18:18:42.620Z,7.93
2023-04-05T18:21:10.599Z,7.38
2023-04-05T18:23:39.440Z,7.55
2023-04-05T18:26:09.162Z,7.51
2023-04-05T18:28:38.429Z,7.34
2023-04-05T18:31:10.216Z,7.31
2023-04-05T18:33:41.584Z,7.43
2023-04-05T18:36:09.563Z,7.20
2023-04-05T18:38:38.846Z,7.29
2023-04-05T18:41:10.906Z,7.11
2023-04-05T18:43:41.171Z,6.93
2023-04-05T18:46:21.253Z,6.90
2023-04-05T18:48:54.994Z,6.96
2023-04-05T18:51:27.211Z,6.88
2023-04-05T18:53:56.531Z,6.79
2023-04-05T18:56:32.254Z,6.73
2023-04-05T18:59:09.966Z,6.79
2023-04-05T19:01:42.718Z,6.88
2023-04-05T19:04:13.542Z,6.69
2023-04-05T19:06:41.873Z,6.46
2023-04-05T19:09:12.527Z,6.31
2023-04-05T19:11:42.491Z,6.26
2023-04-05T19:14:16.687Z,6.18
2023-04-05T19:16:45.670Z,6.08
2023-04-05T19:19:17.407Z,5.95
2023-04-05T19:21:45.716Z,5.77
2023-04-05T19:24:15.486Z,5.73
2023-04-05T19:26:47.696Z,5.45
2023-04-05T19:29:22.424Z,5.58
2023-04-05T19:31:51.111Z,5.48
2023-04-05T19:34:29.334Z,5.40
2023-04-05T19:37:01.882Z,5.41
2023-04-05T19:39:30.101Z,5.41
2023-04-05T19:42:04.549Z,5.48
2023-04-05T19:44:49.983Z,5.29
2023-04-05T19:47:23.513Z,5.27
2023-04-05T19:49:58.497Z,5.14
2023-04-05T19:52:41.656Z,5.15
2023-04-05T19:55:30.644Z,4.98
2023-04-05T19:58:05.412Z,4.85
2023-04-05T20:00:37.576Z,5.02
2023-04-05T20:03:29.646Z,5.04
2023-04-05T20:06:18.355Z,5.22
2023-04-05T20:08:49.017Z,5.32
2023-04-05T20:11:21.393Z,5.27
2023-04-05T20:13:55.268Z,5.29
2023-04-05T20:16:29.340Z,5.17
2023-04-05T20:19:08.977Z,5.24
2023-04-05T20:21:39.942Z,5.01
2023-04-05T20:24:10.912Z,5.04
2023-04-05T20:26:45.012Z,5.01
2023-04-05T20:29:18.310Z,4.91
2023-04-05T20:31:48.057Z,5.02
2023-04-05T20:34:21.125Z,5.05
2023-04-05T20:36:53.429Z,5.03
2023-04-05T20:39:27.406Z,4.96
2023-04-05T20:41:56.928Z,4.82
2023-04-05T20:44:27.410Z,4.42
2023-04-05T20:46:57.691Z,4.76
2023-04-05T20:49:28.384Z,4.66
2023-04-05T20:52:00.051Z,4.54
2023-04-05T20:54:28.411Z,4.45
2023-04-05T20:56:57.084Z,4.29
2023-04-05T20:59:33.957Z,4.35
2023-04-05T21:02:07.043Z,4.31
2023-04-05T21:04:44.223Z,4.21
2023-04-05T21:07:15.306Z,4.19
2023-04-05T21:09:43.683Z,4.37
2023-04-05T21:12:12.765Z,4.54
2023-04-05T21:14:41.129Z,4.54
2023-04-05T21:17:10.884Z,4.11
2023-04-05T21:19:39.831Z,4.23
2023-04-05T21:22:08.504Z,3.86
2023-04-05T21:24:47.002Z,4.11
2023-04-05T21:27:15.755Z,3.95
2023-04-05T21:29:46.339Z,4.07
2023-04-05T21:32:15.869Z,3.79
2023-04-05T21:34:45.239Z,3.84
2023-04-05T21:37:16.666Z,3.78
2023-04-05T21:39:48.037Z,3.70
2023-04-05T21:42:17.743Z,3.81
2023-04-05T21:44:46.626Z,3.76
2023-04-05T21:47:17.892Z,3.57
2023-04-05T21:49:47.160Z,3.68
2023-04-05T21:52:15.490Z,3.83
2023-04-05T21:54:46.117Z,3.72
2023-04-05T21:57:14.857Z,3.72
2023-04-05T21:59:47.720Z,3.78
2023-04-05T22:02:16.367Z,3.62
2023-04-05T22:04:48.450Z,3.56
2023-04-05T22:07:22.030Z,3.32
2023-04-05T22:09:55.749Z,3.37
2023-04-05T22:12:25.756Z,3.38
2023-04-05T22:14:56.883Z,3.42
2023-04-05T22:17:27.881Z,3.47
2023-04-05T22:19:56.024Z,3.39
2023-04-05T22:22:25.121Z,3.26
2023-04-05T22:24:56.819Z,3.43
2023-04-05T22:27:29.371Z,3.31
2023-04-05T22:29:58.773Z,3.36
2023-04-05T22:32:27.221Z,2.97
2023-04-05T22:34:57.407Z,3.11
2023-04-05T22:37:27.035Z,3.11
2023-04-05T22:39:57.846Z,3.16
2023-04-05T22:42:27.659Z,3.00
2023-04-05T22:44:59.705Z,2.98
2023-04-05T22:47:27.753Z,2.94
2023-04-05T22:49:58.288Z,3.01
2023-04-05T22:52:27.593Z,2.82
2023-04-05T22:54:57.587Z,2.64
2023-04-05T22:57:26.366Z,2.76
2023-04-05T22:59:54.478Z,2.65
2023-04-05T23:02:25.113Z,2.48
2023-04-05T23:04:55.150Z,2.74
2023-04-05T23:07:23.332Z,2.53
2023-04-05T23:09:57.177Z,2.60
2023-04-05T23:12:27.326Z,2.61
2023-04-05T23:14:56.484Z,2.74
2023-04-05T23:17:25.807Z,2.78
2023-04-05T23:19:57.461Z,2.87
2023-04-05T23:22:26.775Z,2.69
2023-04-05T23:24:54.821Z,2.50
2023-04-05T23:27:23.217Z,2.44
2023-04-05T23:29:52.807Z,2.31
2023-04-05T23:32:24.458Z,2.32
2023-04-05T23:34:53.921Z,2.26
2023-04-05T23:37:22.778Z,2.37
2023-04-05T23:39:50.840Z,2.36
2023-04-05T23:42:20.739Z,2.40
2023-04-05T23:44:50.096Z,2.37
2023-04-05T23:47:20.101Z,2.29
2023-04-05T23:49:48.751Z,2.26
2023-04-05T23:52:19.589Z,2.26
2023-04-05T23:54:48.140Z,2.25
2023-04-05T23:57:18.348Z,2.24
2023-04-05T23:59:50.998Z,2.22
